createdAt,value
2023-04-27T00:02:12.666Z,100683.22
2023-04-27T00:05:15.280Z,100667.53
2023-04-27T00:08:17.726Z,100676.53
2023-04-27T00:11:20.019Z,100681.00
2023-04-27T00:14:22.387Z,100682.41
2023-04-27T00:17:24.746Z,100682.59
2023-04-27T00:20:27.093Z,100674.34
2023-04-27T00:23:29.391Z,100687.59
2023-04-27T00:26:31.825Z,100687.66
2023-04-27T00:29:35.277Z,100688.16
2023-04-27T00:32:37.642Z,100687.88
2023-04-27T00:35:40.018Z,100683.38
2023-04-27T00:38:43.052Z,100695.22
2023-04-27T00:41:45.762Z,100693.75
2023-04-27T00:44:48.162Z,100689.88
2023-04-27T00:47:50.942Z,100684.91
2023-04-27T00:50:53.671Z,100682.31
2023-04-27T00:53:59.204Z,100682.59
2023-04-27T00:57:02.324Z,100675.78
2023-04-27T01:00:07.200Z,100663.84
2023-04-27T01:03:09.881Z,100682.59
2023-04-27T01:06:12.337Z,100680.50
2023-04-27T01:09:16.562Z,100685.22
2023-04-27T01:12:18.943Z,100690.06
2023-04-27T01:15:21.522Z,100693.28
2023-04-27T01:18:23.937Z,100679.06
2023-04-27T01:21:27.310Z,100697.78
2023-04-27T01:24:29.677Z,100690.41
2023-04-27T01:27:32.971Z,100686.38
2023-04-27T01:30:35.436Z,100700.22
2023-04-27T01:33:38.414Z,100661.75
2023-04-27T01:36:41.966Z,100703.78
2023-04-27T01:39:44.483Z,100688.75
2023-04-27T01:42:46.821Z,100697.00
2023-04-27T01:45:49.199Z,100691.03
2023-04-27T01:48:51.601Z,100705.09
2023-04-27T01:51:53.965Z,100687.47
2023-04-27T01:54:56.366Z,100709.75
2023-04-27T01:57:58.812Z,100708.69
2023-04-27T02:01:01.157Z,100710.91
2023-04-27T02:04:05.020Z,100706.19
2023-04-27T02:07:07.538Z,100681.28
2023-04-27T02:10:11.043Z,100701.09
2023-04-27T02:13:13.441Z,100707.53
2023-04-27T02:16:16.029Z,100701.38
2023-04-27T02:19:18.389Z,100705.84
2023-04-27T02:22:20.881Z,100706.56
2023-04-27T02:25:23.270Z,100706.19
2023-04-27T02:28:25.633Z,100704.22
2023-04-27T02:31:29.249Z,100709.50
2023-04-27T02:34:31.640Z,100700.00
2023-04-27T02:37:34.844Z,100695.72
2023-04-27T02:40:37.480Z,100699.41
2023-04-27T02:43:42.004Z,100712.78
2023-04-27T02:46:44.416Z,100714.91
2023-04-27T02:49:46.878Z,100720.72
2023-04-27T02:52:49.262Z,100713.66
2023-04-27T02:55:52.076Z,100723.22
2023-04-27T02:58:54.401Z,100729.69
2023-04-27T03:01:56.834Z,100726.31
2023-04-27T03:04:59.439Z,100719.47
2023-04-27T03:08:02.070Z,100721.16
2023-04-27T03:11:04.435Z,100738.00
2023-04-27T03:14:06.796Z,100719.84
2023-04-27T03:17:10.508Z,100722.78
2023-04-27T03:20:13.041Z,100731.41
2023-04-27T03:23:15.449Z,100731.47
2023-04-27T03:26:17.809Z,100731.53
2023-04-27T03:29:20.228Z,100734.25
2023-04-27T03:32:22.612Z,100741.47
2023-04-27T03:35:25.007Z,100745.94
2023-04-27T03:38:27.498Z,100752.72
2023-04-27T03:41:29.802Z,100759.56
2023-04-27T03:44:33.642Z,100754.41
2023-04-27T03:47:35.988Z,100759.22
2023-04-27T03:50:38.311Z,100767.56
2023-04-27T03:53:40.807Z,100769.38
2023-04-27T03:56:44.818Z,100770.53
2023-04-27T03:59:47.287Z,100781.75
2023-04-27T04:02:49.845Z,100773.28
2023-04-27T04:05:52.393Z,100785.38
2023-04-27T04:08:55.039Z,100762.81
2023-04-27T04:11:57.995Z,100784.38
2023-04-27T04:15:00.344Z,100799.34
2023-04-27T04:18:03.399Z,100796.38
2023-04-27T04:21:05.969Z,100786.13
2023-04-27T04:24:08.372Z,100797.44
2023-04-27T04:27:10.788Z,100808.16
2023-04-27T04:30:13.487Z,100774.56
2023-04-27T04:33:17.011Z,100801.84
2023-04-27T04:36:19.579Z,100802.81
2023-04-27T04:39:21.911Z,100790.94
2023-04-27T04:42:24.272Z,100804.47
2023-04-27T04:45:27.136Z,100802.63
2023-04-27T04:48:29.643Z,100785.06
2023-04-27T04:51:32.028Z,100798.34
2023-04-27T04:54:34.510Z,100796.88
2023-04-27T04:57:36.887Z,100814.47
2023-04-27T05:00:39.282Z,100819.47
2023-04-27T05:03:41.755Z,100787.22
2023-04-27T05:06:44.195Z,100818.09
2023-04-27T05:09:46.569Z,100822.28
2023-04-27T05:12:48.913Z,100838.78
2023-04-27T05:15:52.075Z,100840.53
2023-04-27T05:18:54.899Z,100838.91
2023-04-27T05:22:00.724Z,100838.59
2023-04-27T05:25:03.964Z,100849.84
2023-04-27T05:28:06.354Z,100833.16
2023-04-27T05:31:08.945Z,100832.06
2023-04-27T05:34:11.355Z,100843.66
2023-04-27T05:37:14.264Z,100842.72
2023-04-27T05:40:17.102Z,100848.66
2023-04-27T05:43:19.592Z,100837.41
2023-04-27T05:46:27.607Z,100856.63
2023-04-27T05:49:30.029Z,100851.28
2023-04-27T05:52:32.386Z,100854.72
2023-04-27T05:55:41.108Z,100851.31
2023-04-27T05:58:44.103Z,100853.75
2023-04-27T06:01:46.442Z,100847.94
2023-04-27T06:04:48.813Z,100865.00
2023-04-27T06:07:51.898Z,100860.47
2023-04-27T06:10:54.281Z,100870.38
2023-04-27T06:13:57.073Z,100870.94
2023-04-27T06:16:59.474Z,100865.31
2023-04-27T06:20:01.837Z,100871.31
2023-04-27T06:23:04.164Z,100871.84
2023-04-27T06:26:06.564Z,100870.38
2023-04-27T06:29:08.997Z,100870.00
2023-04-27T06:32:11.882Z,100875.69
2023-04-27T06:35:17.814Z,100882.13
2023-04-27T06:38:20.198Z,100879.06
2023-04-27T06:41:26.354Z,100868.91
2023-04-27T06:44:28.690Z,100879.00
2023-04-27T06:47:31.178Z,100847.75
2023-04-27T06:50:33.533Z,100885.72
2023-04-27T06:53:35.960Z,100887.75
2023-04-27T06:56:38.525Z,100882.88
2023-04-27T06:59:40.983Z,100876.13
2023-04-27T07:02:43.976Z,100873.28
2023-04-27T07:05:46.783Z,100883.88
2023-04-27T07:08:49.111Z,100888.25
2023-04-27T07:11:51.543Z,100883.19
2023-04-27T07:14:53.919Z,100888.63
2023-04-27T07:17:56.470Z,100893.63
2023-04-27T07:20:58.837Z,100881.78
2023-04-27T07:24:01.232Z,100888.53
2023-04-27T07:27:04.156Z,100889.25
2023-04-27T07:30:09.456Z,100883.47
2023-04-27T07:33:11.825Z,100887.53
2023-04-27T07:36:14.166Z,100892.31
2023-04-27T07:39:16.855Z,100896.13
2023-04-27T07:42:19.661Z,100896.44
2023-04-27T07:45:22.434Z,100895.78
2023-04-27T07:48:25.137Z,100897.44
2023-04-27T07:51:28.881Z,100908.03
2023-04-27T07:54:31.655Z,100898.97
2023-04-27T07:57:34.094Z,100897.13
2023-04-27T08:00:36.562Z,100896.69
2023-04-27T08:03:39.188Z,100906.28
2023-04-27T08:06:42.105Z,100908.81
2023-04-27T08:09:44.750Z,100912.28
2023-04-27T08:12:47.097Z,100906.41
2023-04-27T08:15:49.546Z,100913.66
2023-04-27T08:18:52.131Z,100901.44
2023-04-27T08:21:54.434Z,100900.91
2023-04-27T08:24:56.830Z,100907.56
2023-04-27T08:27:59.169Z,100907.03
2023-04-27T08:31:01.969Z,100912.84
2023-04-27T08:34:04.368Z,100915.84
2023-04-27T08:37:07.012Z,100903.22
2023-04-27T08:40:10.060Z,100921.09
2023-04-27T08:43:12.437Z,100890.34
2023-04-27T08:46:14.852Z,100915.13
2023-04-27T08:49:17.806Z,100910.91
2023-04-27T08:52:20.268Z,100916.31
2023-04-27T08:55:23.710Z,100913.69
2023-04-27T08:58:39.413Z,100895.81
2023-04-27T09:01:49.162Z,100907.06
2023-04-27T09:04:52.114Z,100908.25
2023-04-27T09:08:05.798Z,100901.22
2023-04-27T09:11:08.313Z,100902.00
2023-04-27T09:14:17.759Z,100895.69
2023-04-27T09:17:24.993Z,100896.25
2023-04-27T09:20:27.509Z,100898.81
2023-04-27T09:23:30.495Z,100889.72
2023-04-27T09:26:32.848Z,100888.69
2023-04-27T09:29:38.911Z,100877.75
2023-04-27T10:07:49.604Z,100852.94
2023-04-27T10:10:53.379Z,100856.69
2023-04-27T10:13:55.974Z,100860.22
2023-04-27T10:16:59.771Z,100854.47
2023-04-27T10:20:09.979Z,100854.72
2023-04-27T10:23:22.857Z,100837.22
2023-04-27T10:26:28.355Z,100844.94
2023-04-27T10:29:36.855Z,100850.53
2023-04-27T10:32:58.677Z,100837.41
2023-04-27T10:36:01.123Z,100837.41
2023-04-27T10:39:05.457Z,100846.75
2023-04-27T10:42:08.064Z,100830.03
2023-04-27T10:45:11.560Z,100841.25
2023-04-27T10:48:16.797Z,100822.78
2023-04-27T10:51:19.168Z,100851.78
2023-04-27T10:54:21.559Z,100847.03
2023-04-27T10:57:23.901Z,100847.16
2023-04-27T11:00:39.419Z,100841.84
2023-04-27T11:03:44.598Z,100845.06
2023-04-27T11:06:47.164Z,100837.13
2023-04-27T11:09:49.588Z,100846.25
2023-04-27T11:12:51.918Z,100846.59
2023-04-27T11:15:56.215Z,100830.38
2023-04-27T11:19:04.732Z,100846.72
2023-04-27T11:22:07.152Z,100842.38
2023-04-27T11:25:09.538Z,100859.03
2023-04-27T11:28:22.053Z,100850.88
2023-04-27T11:31:24.801Z,100842.19
2023-04-27T11:34:27.519Z,100844.53
2023-04-27T11:37:29.862Z,100840.69
2023-04-27T11:40:34.553Z,100843.56
2023-04-27T11:43:41.616Z,100833.38
2023-04-27T11:46:44.800Z,100831.03
2023-04-27T11:49:48.922Z,100839.41
2023-04-27T11:52:51.810Z,100828.44
2023-04-27T11:55:54.455Z,100833.03
2023-04-27T11:58:56.818Z,100830.88
2023-04-27T12:02:00.321Z,100825.94
2023-04-27T12:05:03.678Z,100836.66
2023-04-27T12:08:06.825Z,100827.34
2023-04-27T12:11:09.229Z,100832.66
2023-04-27T12:14:11.737Z,100830.72
2023-04-27T12:17:14.272Z,100819.97
2023-04-27T12:20:16.696Z,100811.22
2023-04-27T12:23:19.065Z,100821.19
2023-04-27T12:26:21.610Z,100809.47
2023-04-27T12:29:24.623Z,100820.19
2023-04-27T12:32:28.049Z,100816.16
2023-04-27T12:35:32.245Z,100807.50
2023-04-27T12:38:34.642Z,100804.47
2023-04-27T12:41:37.014Z,100803.38
2023-04-27T12:44:39.354Z,100791.63
2023-04-27T12:47:58.267Z,100811.28
2023-04-27T12:51:05.136Z,100795.34
2023-04-27T12:54:09.116Z,100801.38
2023-04-27T12:57:12.237Z,100794.69
2023-04-27T13:00:15.354Z,100799.31
2023-04-27T13:03:17.855Z,100798.25
2023-04-27T13:06:20.819Z,100803.53
2023-04-27T13:09:23.186Z,100788.34
2023-04-27T13:12:25.673Z,100801.88
2023-04-27T13:15:28.651Z,100794.72
2023-04-27T13:18:32.869Z,100799.94
2023-04-27T13:21:36.857Z,100784.25
2023-04-27T13:24:39.237Z,100801.09
2023-04-27T13:27:41.628Z,100802.59
2023-04-27T13:30:43.952Z,100797.44
2023-04-27T13:33:46.356Z,100807.06
2023-04-27T13:36:49.529Z,100790.09
2023-04-27T13:39:52.165Z,100789.53
2023-04-27T13:42:54.533Z,100794.03
2023-04-27T13:46:00.769Z,100785.19
2023-04-27T13:49:03.640Z,100793.63
2023-04-27T13:52:06.068Z,100788.22
2023-04-27T13:55:09.457Z,100788.59
2023-04-27T13:58:12.012Z,100792.63
2023-04-27T14:01:14.373Z,100794.56
2023-04-27T14:04:16.856Z,100781.16
2023-04-27T14:07:19.887Z,100799.78
2023-04-27T14:10:25.280Z,100794.78
2023-04-27T14:13:27.688Z,100790.84
2023-04-27T14:16:30.124Z,100789.47
2023-04-27T14:19:32.899Z,100786.00
2023-04-27T14:22:35.603Z,100803.75
2023-04-27T14:25:39.157Z,100795.63
2023-04-27T14:28:41.541Z,100790.75
2023-04-27T14:31:44.006Z,100796.47
2023-04-27T14:34:46.462Z,100802.47
2023-04-27T14:37:48.867Z,100775.75
2023-04-27T14:40:51.177Z,100805.06
2023-04-27T14:43:54.311Z,100793.34
2023-04-27T14:46:56.699Z,100773.13
2023-04-27T14:49:59.107Z,100799.69
2023-04-27T14:53:01.887Z,100796.78
2023-04-27T14:56:04.586Z,100791.78
2023-04-27T14:59:07.094Z,100801.75
2023-04-27T15:02:09.448Z,100808.78
2023-04-27T15:05:11.913Z,100794.34
2023-04-27T15:08:14.244Z,100803.13
2023-04-27T15:11:16.658Z,100805.03
2023-04-27T15:14:19.008Z,100802.88
2023-04-27T15:17:21.438Z,100811.78
2023-04-27T15:20:23.737Z,100800.13
2023-04-27T15:23:26.892Z,100800.00
2023-04-27T15:26:29.262Z,100783.56
2023-04-27T15:29:31.614Z,100804.25
2023-04-27T15:32:34.007Z,100790.06
2023-04-27T15:35:38.969Z,100793.00
2023-04-27T15:38:41.329Z,100801.31
2023-04-27T15:41:44.750Z,100801.69
2023-04-27T15:44:47.193Z,100802.94
2023-04-27T15:47:49.613Z,100802.28
2023-04-27T15:50:52.054Z,100794.94
2023-04-27T15:53:54.410Z,100800.06
2023-04-27T15:56:56.853Z,100800.03
2023-04-27T15:59:59.303Z,100790.97
2023-04-27T16:03:01.993Z,100791.53
2023-04-27T16:06:04.649Z,100792.81
2023-04-27T16:09:10.446Z,100794.72
2023-04-27T16:12:13.053Z,100795.25
2023-04-27T16:15:15.432Z,100795.69
2023-04-27T16:18:17.826Z,100797.91
2023-04-27T16:21:20.169Z,100792.25
2023-04-27T16:24:22.484Z,100797.25
2023-04-27T16:27:25.661Z,100801.41
2023-04-27T16:30:28.002Z,100802.72
2023-04-27T16:33:30.351Z,100806.63
2023-04-27T16:36:35.470Z,100808.25
2023-04-27T16:39:38.133Z,100806.56
2023-04-27T16:42:40.813Z,100815.75
2023-04-27T16:45:43.311Z,100813.13
2023-04-27T16:48:45.770Z,100814.16
2023-04-27T16:51:48.145Z,100815.00
2023-04-27T16:54:50.517Z,100818.31
2023-04-27T16:57:52.876Z,100813.72
2023-04-27T17:00:55.594Z,100818.00
2023-04-27T17:03:58.604Z,100809.72
2023-04-27T17:07:01.535Z,100807.31
2023-04-27T17:10:05.684Z,100808.34
2023-04-27T17:13:10.650Z,100801.94
2023-04-27T17:16:13.673Z,100819.44
2023-04-27T17:19:16.306Z,100821.47
2023-04-27T17:22:18.712Z,100772.63
2023-04-27T17:25:21.157Z,100818.97
2023-04-27T17:28:23.530Z,100832.25
2023-04-27T17:31:26.381Z,100834.13
2023-04-27T17:34:28.796Z,100828.09
2023-04-27T17:37:31.375Z,100830.31
2023-04-27T17:40:33.706Z,100832.53
2023-04-27T17:43:37.706Z,100837.13
2023-04-27T17:46:45.752Z,100843.56
2023-04-27T17:49:48.121Z,100849.34
2023-04-27T17:52:51.439Z,100847.28
2023-04-27T17:55:53.812Z,100855.50
2023-04-27T17:58:56.139Z,100861.50
2023-04-27T18:01:58.824Z,100864.28
2023-04-27T18:05:01.253Z,100852.97
2023-04-27T18:08:03.672Z,100858.53
2023-04-27T18:11:06.884Z,100868.91
2023-04-27T18:14:09.248Z,100865.97
2023-04-27T18:17:11.646Z,100864.75
2023-04-27T18:20:15.641Z,100870.53
2023-04-27T18:23:18.001Z,100875.72
2023-04-27T18:26:20.397Z,100873.47
2023-04-27T18:29:22.704Z,100874.81
2023-04-27T18:32:25.124Z,100877.84
2023-04-27T18:35:27.548Z,100880.69
2023-04-27T18:38:29.892Z,100884.91
2023-04-27T18:41:32.382Z,100893.72
2023-04-27T18:44:34.775Z,100893.28
2023-04-27T18:47:37.208Z,100902.25
2023-04-27T18:50:39.601Z,100902.78
2023-04-27T18:53:41.971Z,100907.53
2023-04-27T18:56:44.283Z,100908.34
2023-04-27T18:59:46.910Z,100922.84
2023-04-27T19:02:49.355Z,100921.41
2023-04-27T19:05:52.839Z,100916.78
2023-04-27T19:08:55.828Z,100919.91
2023-04-27T19:12:02.997Z,100920.16
2023-04-27T19:15:07.622Z,100920.72
2023-04-27T19:18:11.646Z,100929.88
2023-04-27T19:21:14.348Z,100926.56
2023-04-27T19:24:17.385Z,100928.34
2023-04-27T19:27:19.773Z,100925.66
2023-04-27T19:30:22.183Z,100928.72
2023-04-27T19:33:24.933Z,100932.22
2023-04-27T19:36:28.194Z,100942.78
2023-04-27T19:39:32.370Z,100950.13
2023-04-27T19:42:36.604Z,100952.66
2023-04-27T19:45:39.748Z,100948.31
2023-04-27T19:48:42.539Z,100951.56
2023-04-27T19:51:44.960Z,100948.84
2023-04-27T19:54:52.256Z,100945.81
2023-04-27T19:57:54.628Z,100952.16
2023-04-27T20:00:56.970Z,100955.44
2023-04-27T20:03:59.496Z,100941.91
2023-04-27T20:07:03.733Z,100951.66
2023-04-27T20:10:07.750Z,100967.53
2023-04-27T20:13:10.131Z,100959.47
2023-04-27T20:16:13.030Z,100961.63
2023-04-27T20:19:17.931Z,100963.38
2023-04-27T20:22:20.246Z,100958.16
2023-04-27T20:25:23.023Z,100962.94
2023-04-27T20:28:25.366Z,100961.50
2023-04-27T20:31:27.727Z,100974.00
2023-04-27T20:34:30.108Z,100967.69
2023-04-27T20:37:32.515Z,100968.88
2023-04-27T20:40:34.992Z,100970.34
2023-04-27T20:43:39.183Z,100956.81
2023-04-27T20:46:41.630Z,100963.97
2023-04-27T20:49:44.058Z,100968.47
2023-04-27T20:52:47.116Z,100966.06
2023-04-27T20:55:49.753Z,100967.38
2023-04-27T20:58:52.306Z,100968.50
2023-04-27T21:01:54.637Z,100964.22
2023-04-27T21:04:57.177Z,100964.22
2023-04-27T21:07:59.562Z,100957.66
2023-04-27T21:11:01.948Z,100959.63
2023-04-27T21:14:04.300Z,100953.84
2023-04-27T21:17:06.653Z,100954.50
2023-04-27T21:20:09.966Z,100962.44
2023-04-27T21:23:14.774Z,100961.78
2023-04-27T21:26:17.130Z,100957.56
2023-04-27T21:29:19.450Z,100966.81
2023-04-27T21:32:21.777Z,100963.75
2023-04-27T21:35:24.135Z,100972.81
2023-04-27T21:38:26.772Z,100969.22
2023-04-27T21:41:29.151Z,100971.00
2023-04-27T21:44:31.462Z,100971.97
2023-04-27T21:47:33.828Z,100916.72
2023-04-27T21:50:36.369Z,100974.25
2023-04-27T21:53:38.680Z,100976.34
2023-04-27T21:56:41.127Z,100977.81
2023-04-27T21:59:43.633Z,100993.00
2023-04-27T22:02:46.298Z,100996.88
2023-04-27T22:05:52.873Z,100979.59
2023-04-27T22:08:55.431Z,100998.84
2023-04-27T22:11:57.935Z,100994.16
2023-04-27T22:15:00.444Z,100989.63
2023-04-27T22:18:06.848Z,100988.94
2023-04-27T22:21:10.301Z,100993.47
2023-04-27T22:24:12.939Z,100995.38
2023-04-27T22:27:15.458Z,100984.06
2023-04-27T22:30:17.996Z,101002.47
2023-04-27T22:33:20.523Z,100990.78
2023-04-27T22:36:22.998Z,101000.19
2023-04-27T22:39:25.846Z,100998.84
2023-04-27T22:42:28.333Z,101012.41
2023-04-27T22:45:30.871Z,101004.66
2023-04-27T22:48:33.680Z,100994.78
2023-04-27T22:51:36.775Z,101007.59
2023-04-27T22:54:39.281Z,101006.13
2023-04-27T22:57:42.011Z,101014.22
2023-04-27T23:00:44.576Z,101019.53
2023-04-27T23:03:47.224Z,101019.19
2023-04-27T23:06:50.129Z,101020.34
2023-04-27T23:09:53.110Z,101023.72
2023-04-27T23:12:57.158Z,101017.44
2023-04-27T23:15:59.723Z,101028.41
2023-04-27T23:19:02.302Z,101032.69
2023-04-27T23:22:04.788Z,101027.31
2023-04-27T23:25:07.628Z,101009.44
2023-04-27T23:28:10.106Z,101028.84
2023-04-27T23:31:12.727Z,101028.78
2023-04-27T23:34:15.840Z,101028.50
2023-04-27T23:37:18.645Z,101018.97
2023-04-27T23:40:21.276Z,101018.78
2023-04-27T23:43:23.747Z,101028.94
2023-04-27T23:46:26.334Z,101017.41
2023-04-27T23:49:28.829Z,101027.56
2023-04-27T23:52:31.320Z,101030.16
2023-04-27T23:55:37.182Z,101031.81
2023-04-27T23:58:39.632Z,101034.72
